Time;durP1;ratioP1;P1;durP2;ratioP2;P2;SDS_P1;SDS_P2;PMS_P1;PMS_P2;Temp;Humidity;BMP_temperature;BMP_pressure;BME280_temperature;BME280_humidity;BME280_pressure;Samples;Min_cycle;Max_cycle;Signal;HPM_P1;HPM_P2
2023/09/11 00:00:01;;;;;;;7.60;3.20;;;;;;;-141.97;61.60;47496.00;5013604;28;20541;-82
2023/09/11 00:02:28;;;;;;;4.20;3.10;;;;;;;-141.97;61.85;47438.34;5013362;28;20277;-81
2023/09/11 00:04:54;;;;;;;5.60;3.10;;;;;;;-141.97;61.64;47373.00;5016731;28;20646;-81
2023/09/11 00:07:19;;;;;;;6.33;3.67;;;;;;;-141.97;61.93;47342.25;5017951;28;20194;-82
2023/09/11 00:09:44;;;;;;;5.57;3.43;;;;;;;-141.97;62.41;47492.16;5012820;28;20766;-81
2023/09/11 00:12:10;;;;;;;8.47;3.70;;;;;;;-141.97;63.07;47449.88;5014062;28;20171;-83
2023/09/11 00:14:35;;;;;;;5.90;3.83;;;;;;;-141.97;63.41;47365.31;5013882;28;20200;-81
2023/09/11 00:17:01;;;;;;;7.00;3.60;;;;;;;-141.97;64.11;47505.63;5013701;28;20242;-82
2023/09/11 00:19:26;;;;;;;5.67;3.40;;;;;;;-141.97;64.34;47349.94;5011943;28;20167;-82
2023/09/11 00:21:51;;;;;;;5.07;3.30;;;;;;;-141.97;64.59;47359.56;5013579;28;20542;-81
2023/09/11 00:24:17;;;;;;;7.83;3.30;;;;;;;-141.97;64.68;47321.13;5011477;28;20198;-80
2023/09/11 00:26:42;;;;;;;5.50;3.10;;;;;;;-141.97;64.91;47584.44;5013058;28;20163;-80
2023/09/11 00:29:08;;;;;;;7.00;3.20;;;;;;;-141.97;64.67;47467.19;5012800;28;20221;-80
2023/09/11 00:31:33;;;;;;;4.00;3.13;;;;;;;-141.97;66.25;47513.31;5011624;28;20289;-79
2023/09/11 00:33:58;;;;;;;5.13;3.20;;;;;;;-141.97;66.88;47496.00;5016488;28;20166;-80
2023/09/11 00:36:24;;;;;;;5.70;3.27;;;;;;;-141.97;67.14;47492.16;5013565;28;20190;-80
2023/09/11 00:38:51;;;;;;;7.17;3.20;;;;;;;-141.97;67.73;47471.03;5013714;28;20177;-80
2023/09/11 00:41:16;;;;;;;6.07;3.40;;;;;;;-141.97;67.19;47467.19;5013509;28;20611;-80
2023/09/11 00:43:41;;;;;;;5.03;3.23;;;;;;;-141.97;67.43;47471.03;5012986;28;20186;-80
2023/09/11 00:46:07;;;;;;;5.77;3.27;;;;;;;-141.97;67.49;47645.94;5012917;28;20233;-80
2023/09/11 00:48:32;;;;;;;5.07;3.30;;;;;;;-141.97;67.43;47422.97;5012686;28;20162;-81
2023/09/11 00:50:58;;;;;;;5.80;3.20;;;;;;;-141.97;67.50;47484.47;5012470;28;20174;-81
2023/09/11 00:53:25;;;;;;;5.90;3.43;;;;;;;-141.97;67.06;47522.91;5012677;28;20163;-82
2023/09/11 00:55:52;;;;;;;4.60;3.27;;;;;;;-141.97;67.44;47494.09;5020193;28;20623;-81
2023/09/11 00:58:17;;;;;;;5.03;3.27;;;;;;;-141.97;67.47;47488.31;5019052;28;20177;-81
2023/09/11 01:00:44;;;;;;;7.27;3.37;;;;;;;-141.97;67.49;47474.88;5011561;28;20623;-82
2023/09/11 01:03:12;;;;;;;6.50;3.30;;;;;;;-141.97;67.00;47471.03;5009373;28;20221;-82
2023/09/11 01:05:38;;;;;;;6.50;3.37;;;;;;;-141.97;66.80;47474.88;5013428;28;20241;-82
2023/09/11 01:08:03;;;;;;;6.70;3.70;;;;;;;-141.97;66.94;47471.03;5015625;28;20182;-82
2023/09/11 01:10:29;;;;;;;5.20;3.50;;;;;;;-141.97;66.37;47446.03;5036123;28;20214;-82
2023/09/11 01:12:55;;;;;;;6.00;3.13;;;;;;;-141.97;66.99;47503.69;5016273;28;20205;-80
2023/09/11 01:15:24;;;;;;;4.87;3.53;;;;;;;-141.97;66.76;47676.69;5012327;28;20232;-80
2023/09/11 01:18:21;;;;;;;5.30;3.33;;;;;;;-141.97;67.32;47513.31;5011910;28;20166;-80
2023/09/11 01:21:11;;;;;;;6.70;3.40;;;;;;;-141.97;67.99;47503.69;4969998;28;20633;-78
2023/09/11 01:24:04;;;;;;;6.50;3.30;;;;;;;-141.97;68.38;47480.63;4969689;28;20279;-80
2023/09/11 01:27:02;;;;;;;5.40;3.17;;;;;;;-141.97;68.92;47492.16;4969963;28;20637;-79
2023/09/11 01:29:33;;;;;;;6.53;3.30;;;;;;;-141.97;68.45;47499.84;4970696;28;20211;-80
2023/09/11 01:32:01;;;;;;;5.70;3.07;;;;;;;-141.97;68.13;47501.78;4958730;28;20235;-79
2023/09/11 01:34:27;;;;;;;4.23;3.00;;;;;;;-141.97;68.82;47505.63;4971264;28;20174;-79
2023/09/11 01:36:52;;;;;;;4.83;3.13;;;;;;;-141.97;69.08;47472.94;4972745;28;20188;-78
2023/09/11 01:39:18;;;;;;;6.40;3.30;;;;;;;-141.97;69.16;47551.75;4991652;28;20184;-79
2023/09/11 01:41:46;;;;;;;6.03;3.70;;;;;;;-141.97;70.91;47509.47;4981966;28;20196;-80
2023/09/11 01:44:21;;;;;;;5.77;3.20;;;;;;;-141.97;71.88;47511.38;4970396;28;20227;-79
2023/09/11 01:46:48;;;;;;;6.60;3.57;;;;;;;-141.97;72.08;47496.00;4970075;28;20617;-79
2023/09/11 01:49:16;;;;;;;6.03;3.30;;;;;;;-141.97;72.51;47482.56;4970078;28;20191;-79
2023/09/11 01:51:42;;;;;;;7.03;3.60;;;;;;;-141.97;72.87;47511.38;4969813;28;20180;-79
2023/09/11 01:54:08;;;;;;;6.37;4.00;;;;;;;-141.97;74.16;47496.00;4970613;28;20245;-79
2023/09/11 01:56:35;;;;;;;8.93;4.10;;;;;;;-141.97;74.70;47488.31;4994170;28;20290;-80
2023/09/11 01:59:01;;;;;;;8.40;4.23;;;;;;;-141.97;74.89;47555.59;5011449;28;20615;-79
2023/09/11 02:01:27;;;;;;;7.60;3.97;;;;;;;-141.97;75.28;47607.50;5011615;28;20162;-79
2023/09/11 02:03:52;;;;;;;9.90;4.20;;;;;;;-141.97;76.57;47474.88;5011597;28;20191;-79
2023/09/11 02:06:17;;;;;;;6.20;3.93;;;;;;;-141.97;77.84;47538.28;5011965;28;20309;-79
2023/09/11 02:08:43;;;;;;;6.93;4.07;;;;;;;-141.97;77.93;47497.94;5011686;28;20158;-79
2023/09/11 02:11:09;;;;;;;6.17;4.10;;;;;;;-141.97;78.46;47496.00;5013324;28;20185;-80
2023/09/11 02:13:35;;;;;;;8.03;4.00;;;;;;;-141.97;79.31;47499.84;5018165;28;20165;-78
2023/09/11 02:16:00;;;;;;;5.23;3.77;;;;;;;-141.97;80.79;47642.09;5018214;28;20177;-79
2023/09/11 02:18:26;;;;;;;10.43;4.03;;;;;;;-141.97;81.05;47524.84;5018498;28;20158;-80
2023/09/11 02:20:51;;;;;;;10.57;4.60;;;;;;;-141.97;81.06;47519.06;5018542;28;20166;-80
2023/09/11 02:23:16;;;;;;;10.67;4.50;;;;;;;-141.97;81.40;47536.38;5018319;28;20236;-80
2023/09/11 02:25:42;;;;;;;6.10;4.20;;;;;;;-141.97;81.91;47536.38;5018077;28;20712;-79
2023/09/11 02:28:08;;;;;;;7.57;4.23;;;;;;;-141.97;82.38;47511.38;5018217;28;20194;-81
2023/09/11 02:30:33;;;;;;;6.27;3.83;;;;;;;-141.97;82.47;47522.91;5016416;28;20181;-80
2023/09/11 02:32:58;;;;;;;5.27;3.97;;;;;;;-141.97;82.38;47532.53;5017881;28;20209;-81
2023/09/11 02:35:24;;;;;;;9.40;4.27;;;;;;;-141.97;82.24;47517.16;5017911;28;20546;-79
2023/09/11 02:37:49;;;;;;;5.47;3.83;;;;;;;-141.97;80.87;47513.31;5018181;28;20166;-80
2023/09/11 02:40:15;;;;;;;8.07;4.20;;;;;;;-141.97;80.13;47492.16;5016955;28;20561;-79
2023/09/11 02:42:40;;;;;;;6.67;3.90;;;;;;;-141.97;79.36;47547.91;5018388;28;20217;-79
2023/09/11 02:45:06;;;;;;;7.00;4.00;;;;;;;-141.97;79.52;47511.38;5018172;28;20171;-80
2023/09/11 02:47:31;;;;;;;5.87;3.80;;;;;;;-141.97;80.02;47524.84;5018381;28;20681;-80
2023/09/11 02:49:56;;;;;;;7.90;4.10;;;;;;;-141.97;81.45;47540.22;5018508;28;20253;-80
2023/09/11 02:52:22;;;;;;;7.90;4.27;;;;;;;-141.97;81.66;47492.16;5018320;28;20166;-79
2023/09/11 02:54:47;;;;;;;6.73;4.43;;;;;;;-141.97;82.29;47488.31;5017971;28;20178;-79
2023/09/11 02:57:13;;;;;;;6.57;4.20;;;;;;;-141.97;83.19;47501.78;5033187;28;20269;-79
2023/09/11 02:59:38;;;;;;;6.83;4.23;;;;;;;-141.97;82.84;47513.31;5017603;28;20182;-79
2023/09/11 03:02:04;;;;;;;6.73;4.00;;;;;;;-141.97;82.89;47515.22;5017390;28;20166;-80
2023/09/11 03:04:30;;;;;;;7.20;4.10;;;;;;;-141.97;83.05;47715.13;5017897;28;20174;-80
2023/09/11 03:06:55;;;;;;;8.47;4.37;;;;;;;-141.97;83.70;47524.84;5017788;28;20171;-80
2023/09/11 03:09:20;;;;;;;7.07;4.17;;;;;;;-141.97;84.70;47515.22;5017732;28;20237;-80
2023/09/11 03:11:46;;;;;;;7.87;4.60;;;;;;;-141.97;84.72;47513.31;5017397;28;20367;-80
2023/09/11 03:14:13;;;;;;;7.17;4.50;;;;;;;-141.97;85.53;47567.13;5017072;28;20198;-80
2023/09/11 03:16:43;;;;;;;13.33;4.60;;;;;;;-141.97;85.80;47511.38;5017078;28;20213;-80
2023/09/11 03:19:09;;;;;;;8.67;5.30;;;;;;;-141.97;85.69;47519.06;5015726;28;20179;-81
2023/09/11 03:21:34;;;;;;;8.60;5.03;;;;;;;-141.97;86.35;47496.00;5016772;28;20256;-81
2023/09/11 03:23:59;;;;;;;8.80;5.03;;;;;;;-141.97;85.73;47542.16;5013837;28;20717;-81
2023/09/11 03:26:25;;;;;;;8.40;5.00;;;;;;;-141.97;84.29;47488.31;5014327;28;20169;-81
2023/09/11 03:28:50;;;;;;;9.17;4.83;;;;;;;-141.97;84.43;47513.31;5014246;28;20202;-81
2023/09/11 03:31:16;;;;;;;8.03;4.73;;;;;;;-141.97;84.06;47524.84;5013960;28;20748;-80
2023/09/11 03:33:42;;;;;;;8.40;5.20;;;;;;;-141.97;83.74;47438.34;5014304;28;20174;-81
2023/09/11 03:36:07;;;;;;;6.77;5.00;;;;;;;-141.97;83.84;47380.69;5013972;28;20166;-81
2023/09/11 03:38:33;;;;;;;7.00;5.40;;;;;;;-141.97;84.39;47496.00;5013981;28;20542;-82
2023/09/11 03:40:59;;;;;;;9.37;5.33;;;;;;;-141.97;83.70;47530.59;5013171;28;20194;-82
2023/09/11 03:43:24;;;;;;;12.10;6.73;;;;;;;-141.97;83.08;47457.56;4995857;28;20560;-81
2023/09/11 03:45:50;;;;;;;9.07;5.37;;;;;;;-141.97;81.98;47526.75;5016466;28;20230;-81
2023/09/11 03:48:15;;;;;;;8.83;5.67;;;;;;;-141.97;81.83;47651.69;4999331;28;20251;-80
2023/09/11 03:50:41;;;;;;;12.20;5.97;;;;;;;-141.97;81.39;47513.31;4995470;28;20174;-80
2023/09/11 03:53:06;;;;;;;16.00;5.70;;;;;;;-141.97;81.36;47484.47;4995238;28;20302;-81
2023/09/11 03:55:32;;;;;;;10.90;5.80;;;;;;;-141.97;81.07;47492.16;5012984;28;20194;-81
2023/09/11 03:57:57;;;;;;;12.43;5.70;;;;;;;-141.97;80.93;47595.97;5012737;28;20174;-81
2023/09/11 04:00:23;;;;;;;10.77;5.93;;;;;;;-141.97;80.54;47530.59;5013486;28;20286;-80
2023/09/11 04:02:48;;;;;;;10.63;5.60;;;;;;;-141.97;81.22;47540.22;5012343;28;20205;-80
2023/09/11 04:05:14;;;;;;;8.80;5.57;;;;;;;-141.97;81.06;47538.28;5013222;28;20175;-80
2023/09/11 04:07:40;;;;;;;16.17;5.63;;;;;;;-141.97;81.39;47522.91;5013556;28;20162;-81
2023/09/11 04:10:06;;;;;;;11.67;6.20;;;;;;;-141.97;81.66;47459.50;5017726;28;20194;-83
2023/09/11 04:12:32;;;;;;;19.70;7.17;;;;;;;-141.97;81.64;47538.28;5014359;28;20155;-81
2023/09/11 04:14:57;;;;;;;14.50;7.27;;;;;;;-141.97;81.04;47521.00;5014024;28;20190;-81
2023/09/11 04:17:22;;;;;;;14.77;6.30;;;;;;;-141.97;80.86;47534.44;5013013;28;20549;-80
2023/09/11 04:19:48;;;;;;;11.17;6.73;;;;;;;-141.97;81.34;47546.00;5013127;28;20631;-80
2023/09/11 04:22:13;;;;;;;10.73;6.63;;;;;;;-141.97;81.00;47488.31;5012786;28;20190;-81
2023/09/11 04:24:39;;;;;;;13.70;7.00;;;;;;;-141.97;80.88;47480.63;5013185;28;20173;-81
2023/09/11 04:27:05;;;;;;;11.87;6.67;;;;;;;-141.97;80.59;47659.38;5012875;28;20166;-81
2023/09/11 04:29:31;;;;;;;12.73;7.00;;;;;;;-141.97;80.42;47572.91;5013143;28;20159;-80
2023/09/11 04:31:57;;;;;;;14.07;6.97;;;;;;;-141.97;80.16;47522.91;5011282;28;20230;-81
2023/09/11 04:34:22;;;;;;;14.30;7.30;;;;;;;-141.97;80.15;47553.69;5012212;28;20567;-82
2023/09/11 04:36:47;;;;;;;19.93;7.33;;;;;;;-141.97;79.42;47471.03;5012800;28;20167;-81
2023/09/11 04:39:13;;;;;;;17.83;7.13;;;;;;;-141.97;79.68;47490.25;5012818;28;20250;-81
2023/09/11 04:41:38;;;;;;;14.67;7.07;;;;;;;-141.97;79.35;47509.47;5017437;28;20596;-81
2023/09/11 04:44:04;;;;;;;12.23;7.07;;;;;;;-141.97;79.00;47478.72;5024882;28;20210;-81
2023/09/11 04:46:29;;;;;;;12.17;6.93;;;;;;;-141.97;78.64;47526.75;5016590;28;20190;-81
2023/09/11 04:48:57;;;;;;;12.00;7.27;;;;;;;-141.97;78.47;47503.69;5012719;28;20178;-82
2023/09/11 04:51:24;;;;;;;17.00;7.27;;;;;;;-141.97;78.13;47517.16;5014267;28;20242;-81
2023/09/11 04:53:50;;;;;;;14.97;6.60;;;;;;;-141.97;77.73;47534.44;5014104;28;20182;-81
2023/09/11 04:56:15;;;;;;;16.70;7.23;;;;;;;-141.97;77.25;47544.06;5015047;28;20166;-81
2023/09/11 04:58:40;;;;;;;11.53;7.57;;;;;;;-141.97;77.30;47538.28;5013802;28;20225;-81
2023/09/11 05:01:08;;;;;;;12.53;6.43;;;;;;;-141.97;76.80;47496.00;5013380;28;20229;-83
2023/09/11 05:03:34;;;;;;;11.10;6.50;;;;;;;-141.97;76.95;47330.72;5013267;28;20265;-81
2023/09/11 05:05:59;;;;;;;9.83;6.27;;;;;;;-141.97;77.45;47499.84;5011316;28;20650;-80
2023/09/11 05:08:24;;;;;;;12.73;6.73;;;;;;;-141.97;78.60;47440.28;5012445;28;20210;-80
2023/09/11 05:10:50;;;;;;;10.00;6.73;;;;;;;-141.97;79.52;47534.44;5012274;28;20686;-81
2023/09/11 05:13:15;;;;;;;10.93;5.87;;;;;;;-141.97;80.15;47590.19;5012742;28;20175;-79
2023/09/11 05:15:41;;;;;;;9.17;6.33;;;;;;;-141.97;80.67;47553.69;5012740;28;20182;-80
2023/09/11 05:18:06;;;;;;;15.97;7.07;;;;;;;-141.97;80.88;47565.22;5012572;28;20163;-80
2023/09/11 05:20:32;;;;;;;12.27;6.67;;;;;;;-141.97;79.40;47542.16;5012173;28;20544;-80
2023/09/11 05:22:57;;;;;;;12.63;6.20;;;;;;;-141.97;79.03;47536.38;5012262;28;20199;-80
2023/09/11 05:25:23;;;;;;;11.57;6.73;;;;;;;-141.97;78.98;47536.38;5012542;28;20309;-79
2023/09/11 05:27:49;;;;;;;12.13;6.10;;;;;;;-141.97;78.19;47501.78;5027531;28;20681;-80
2023/09/11 05:30:15;;;;;;;13.97;6.03;;;;;;;-141.97;78.13;47453.72;5018085;28;20192;-81
2023/09/11 05:32:40;;;;;;;11.57;5.90;;;;;;;-141.97;77.29;47526.75;5010813;28;20234;-80
2023/09/11 05:35:06;;;;;;;10.43;6.33;;;;;;;-141.97;76.08;47497.94;5010801;28;20190;-81
2023/09/11 05:37:32;;;;;;;15.17;6.00;;;;;;;-141.97;75.88;47540.22;5012213;28;20190;-79
2023/09/11 05:39:58;;;;;;;8.57;5.17;;;;;;;-141.97;75.40;47513.31;5011889;28;20614;-80
2023/09/11 05:42:24;;;;;;;13.77;5.60;;;;;;;-141.97;75.01;47515.22;5012097;28;20586;-81
2023/09/11 05:44:49;;;;;;;10.77;5.60;;;;;;;-141.97;73.36;47505.63;5011426;28;20174;-81
2023/09/11 05:47:15;;;;;;;8.23;5.10;;;;;;;-141.97;73.00;47515.22;5011402;28;20620;-83
2023/09/11 05:49:41;;;;;;;8.37;4.90;;;;;;;-141.97;72.42;47517.16;5012154;28;20686;-80
2023/09/11 05:52:06;;;;;;;7.13;5.00;;;;;;;-141.97;73.03;47546.00;5010509;28;20225;-80
2023/09/11 05:54:33;;;;;;;7.07;4.33;;;;;;;-141.97;72.19;47482.56;5011739;28;20162;-80
2023/09/11 05:57:00;;;;;;;7.63;4.53;;;;;;;-141.97;71.26;47569.06;5011621;28;20169;-80
2023/09/11 05:59:26;;;;;;;10.57;4.63;;;;;;;-141.97;70.44;47499.84;5010288;28;20710;-80
2023/09/11 06:01:52;;;;;;;6.70;4.53;;;;;;;-141.97;70.57;47522.91;5011649;28;20178;-80
2023/09/11 06:04:17;;;;;;;7.93;4.60;;;;;;;-141.97;70.90;47567.13;5026377;28;20666;-80
2023/09/11 06:06:43;;;;;;;10.27;5.00;;;;;;;-141.97;71.04;47530.59;5011354;28;20266;-80
2023/09/11 06:09:09;;;;;;;10.20;4.60;;;;;;;-141.97;70.57;47546.00;5011601;28;20174;-80
2023/09/11 06:11:35;;;;;;;10.07;5.33;;;;;;;-141.97;69.54;47530.59;5011409;28;20155;-81
2023/09/11 06:14:00;;;;;;;7.23;4.97;;;;;;;-141.97;70.09;47542.16;5012210;28;20252;-81
2023/09/11 06:16:26;;;;;;;11.17;7.33;;;;;;;-141.97;70.11;47540.22;5012853;28;20250;-81
2023/09/11 06:18:51;;;;;;;11.03;5.87;;;;;;;-141.97;69.21;47486.41;5013920;28;20159;-80
2023/09/11 06:21:17;;;;;;;10.50;5.40;;;;;;;-141.97;69.49;47478.72;5020217;28;20264;-81
2023/09/11 06:23:43;;;;;;;7.67;5.17;;;;;;;-141.97;68.00;47678.63;5024413;28;20621;-81
2023/09/11 06:26:09;;;;;;;8.90;5.47;;;;;;;-141.97;67.83;47511.38;5007429;28;20670;-80
2023/09/11 06:28:34;;;;;;;14.63;6.40;;;;;;;-141.97;67.06;47532.53;5010260;28;20568;-81
2023/09/11 06:30:59;;;;;;;11.23;5.80;;;;;;;-141.97;66.00;47469.09;5010806;28;20670;-80
2023/09/11 06:33:27;;;;;;;7.60;5.47;;;;;;;-141.97;65.61;47496.00;5011314;28;20163;-80
2023/09/11 06:35:53;;;;;;;9.53;5.30;;;;;;;-141.97;66.55;47476.78;5011109;28;20167;-81
2023/09/11 06:38:19;;;;;;;8.93;4.83;;;;;;;-141.97;66.10;47463.34;5010982;28;20159;-80
2023/09/11 06:40:44;;;;;;;9.13;4.70;;;;;;;-141.97;65.34;47494.09;5010632;28;20233;-80
2023/09/11 06:43:10;;;;;;;7.93;4.60;;;;;;;-141.97;64.09;47488.31;5011074;28;20241;-81
2023/09/11 06:45:35;;;;;;;8.83;4.70;;;;;;;-141.97;64.28;47511.38;5010764;28;20162;-81
2023/09/11 06:48:02;;;;;;;7.37;4.37;;;;;;;-141.97;63.25;47530.59;5010493;28;20202;-83
2023/09/11 06:50:27;;;;;;;8.07;4.17;;;;;;;-141.97;62.44;47494.09;5011186;28;20163;-80
2023/09/11 06:52:53;;;;;;;9.43;4.70;;;;;;;-141.97;62.77;47496.00;5010575;28;20170;-80
2023/09/11 06:55:18;;;;;;;7.93;4.23;;;;;;;-141.97;61.39;47403.75;5010949;28;20159;-81
2023/09/11 06:57:56;;;;;;;7.50;3.80;;;;;;;-141.97;61.96;47519.06;5013124;28;20278;-81
2023/09/11 07:00:21;;;;;;;9.63;4.27;;;;;;;-141.97;62.12;47519.06;5031125;28;20571;-81
2023/09/11 07:02:48;;;;;;;8.67;4.37;;;;;;;-141.97;62.63;47653.63;5014913;28;20674;-81
2023/09/11 07:05:14;;;;;;;10.13;4.60;;;;;;;-141.97;61.39;47511.38;5014650;28;20178;-81
2023/09/11 07:07:40;;;;;;;8.37;4.80;;;;;;;-141.97;61.28;47530.59;5029498;28;20167;-80
2023/09/11 07:10:07;;;;;;;7.43;4.17;;;;;;;-141.97;60.26;47490.25;5013644;28;20703;-79
2023/09/11 07:12:32;;;;;;;9.20;4.77;;;;;;;-141.97;59.25;47488.31;5013617;28;20171;-80
2023/09/11 07:14:57;;;;;;;10.40;4.57;;;;;;;-141.97;57.83;47459.50;5013810;28;20170;-80
2023/09/11 07:17:23;;;;;;;8.53;4.13;;;;;;;-141.97;56.94;47505.63;5016819;28;20229;-79
2023/09/11 07:19:48;;;;;;;4.83;3.73;;;;;;;-141.97;56.97;47478.72;5019823;28;20658;-79
2023/09/11 07:22:14;;;;;;;7.13;3.80;;;;;;;-141.97;57.17;47499.84;5013369;28;20190;-79
2023/09/11 07:24:39;;;;;;;7.57;3.97;;;;;;;-141.97;57.18;47482.56;5013061;28;20321;-80
2023/09/11 07:27:05;;;;;;;7.40;4.10;;;;;;;-141.97;55.42;47463.34;5013041;28;20181;-81
2023/09/11 07:29:30;;;;;;;9.00;4.00;;;;;;;-141.97;54.77;47442.19;5013435;28;20170;-80
2023/09/11 07:31:55;;;;;;;11.30;4.30;;;;;;;-141.97;55.65;47453.72;5013002;28;20935;-80
2023/09/11 07:34:21;;;;;;;8.20;4.50;;;;;;;-141.97;54.54;47442.19;5013481;28;20166;-81
2023/09/11 07:36:47;;;;;;;10.63;4.60;;;;;;;-141.97;54.42;47492.16;5013224;28;20886;-81
2023/09/11 07:39:12;;;;;;;4.90;3.97;;;;;;;-141.97;54.10;47570.97;5013194;28;20182;-81
2023/09/11 07:41:37;;;;;;;14.73;5.00;;;;;;;-141.97;54.30;47526.75;5013406;28;20198;-81
2023/09/11 07:44:03;;;;;;;8.23;4.13;;;;;;;-141.97;52.86;47434.50;5012144;28;20917;-81
2023/09/11 07:46:29;;;;;;;11.50;4.50;;;;;;;-141.97;51.96;47474.88;5013062;28;20179;-81
2023/09/11 07:48:54;;;;;;;9.73;4.50;;;;;;;-141.97;52.04;47449.88;5013454;28;20681;-81
2023/09/11 07:51:20;;;;;;;9.20;4.53;;;;;;;-141.97;51.04;47515.22;5015932;28;20173;-81
2023/09/11 07:53:45;;;;;;;10.23;4.40;;;;;;;-141.97;52.18;47422.97;5031260;28;20163;-81
2023/09/11 07:56:11;;;;;;;7.20;4.20;;;;;;;-141.97;51.01;47453.72;5015556;28;20584;-81
2023/09/11 07:58:37;;;;;;;7.77;4.00;;;;;;;-141.97;50.00;47469.09;5013418;28;20167;-82
2023/09/11 08:01:04;;;;;;;9.60;4.97;;;;;;;-141.97;50.75;47461.41;5012433;28;20163;-79
2023/09/11 08:03:32;;;;;;;7.10;4.10;;;;;;;-141.97;50.22;47447.97;5011171;28;20654;-80
2023/09/11 08:05:59;;;;;;;5.83;4.20;;;;;;;-141.97;50.57;47447.97;5012432;28;20175;-81
2023/09/11 08:08:25;;;;;;;8.77;4.53;;;;;;;-141.97;50.45;47465.25;5012165;28;20170;-81
2023/09/11 08:10:51;;;;;;;8.30;4.40;;;;;;;-141.97;49.19;47465.25;5012998;28;20705;-81
2023/09/11 08:13:16;;;;;;;7.37;4.77;;;;;;;-141.97;49.22;47476.78;5013070;28;20222;-81
2023/09/11 08:15:42;;;;;;;6.27;4.23;;;;;;;-141.97;48.15;47484.47;5001354;28;20179;-81
2023/09/11 08:18:07;;;;;;;9.43;5.07;;;;;;;-141.97;46.09;47411.44;5012771;28;20192;-81
2023/09/11 08:20:32;;;;;;;4.67;4.20;;;;;;;-141.97;45.99;47461.41;5012599;28;20224;-82
2023/09/11 08:22:58;;;;;;;9.27;4.40;;;;;;;-141.97;44.89;47444.13;5012413;28;20191;-81
2023/09/11 08:25:23;;;;;;;8.20;4.33;;;;;;;-141.97;43.51;47419.13;5012177;28;20197;-81
2023/09/11 08:27:49;;;;;;;6.20;3.87;;;;;;;-141.97;43.68;47449.88;5012771;28;20167;-81
2023/09/11 08:30:14;;;;;;;5.23;3.90;;;;;;;-141.97;42.41;47422.97;5012391;28;20631;-81
2023/09/11 08:32:40;;;;;;;6.87;4.00;;;;;;;-141.97;42.30;47411.44;5012552;28;20647;-81
2023/09/11 08:35:06;;;;;;;6.70;4.17;;;;;;;-141.97;42.37;47388.38;5012395;28;20163;-81
2023/09/11 08:37:31;;;;;;;9.63;4.30;;;;;;;-141.97;43.31;47426.81;5027572;28;20269;-83
2023/09/11 08:39:56;;;;;;;11.33;4.33;;;;;;;-141.97;42.02;47422.97;5012118;28;20197;-84
2023/09/11 08:42:23;;;;;;;11.40;3.83;;;;;;;-141.97;41.94;47307.66;5011354;28;20563;-84
2023/09/11 08:44:49;;;;;;;7.17;3.60;;;;;;;-141.97;37.89;47384.53;5011662;28;20245;-84
2023/09/11 08:47:19;;;;;;;11.57;4.73;;;;;;;-141.97;38.41;47276.91;5012951;28;20210;-84
2023/09/11 08:49:53;;;;;;;5.57;3.40;;;;;;;-141.97;37.07;47380.69;5011429;28;20181;-84
2023/09/11 08:52:18;;;;;;;5.45;3.63;;;;;;;-141.97;36.94;47486.41;5011672;28;20177;-84
2023/09/11 08:54:48;;;;;;;13.80;4.82;;;;;;;-141.97;36.82;47530.59;5028265;28;20611;-84
2023/09/11 08:57:15;;;;;;;6.10;3.33;;;;;;;-141.97;34.73;47407.59;5027054;28;20239;-84
2023/09/11 08:59:44;;;;;;;4.57;3.30;;;;;;;-141.97;34.56;47211.56;5031242;28;20173;-85
2023/09/11 09:02:12;;;;;;;6.15;3.67;;;;;;;-141.97;34.42;47280.75;5020800;28;20563;-84
2023/09/11 09:04:40;;;;;;;6.03;3.78;;;;;;;-141.97;34.58;47409.53;5012662;28;20206;-84
2023/09/11 09:07:09;;;;;;;8.10;3.97;;;;;;;-141.97;33.53;47620.94;5031051;28;20343;-83
2023/09/11 09:09:35;;;;;;;7.22;3.70;;;;;;;-141.97;33.44;47178.91;5027979;28;20171;-83
2023/09/11 09:12:02;;;;;;;4.32;3.58;;;;;;;-141.97;32.37;47384.53;5037556;28;20191;-84
2023/09/11 09:14:29;;;;;;;14.75;5.10;;;;;;;-141.97;32.60;47209.66;5025941;28;20192;-83
2023/09/11 09:16:56;;;;;;;6.30;4.07;;;;;;;-141.97;32.94;47288.44;5019897;28;20164;-83
2023/09/11 09:19:22;;;;;;;5.32;3.75;;;;;;;-141.97;32.16;47398.00;5028900;28;20170;-85
2023/09/11 09:22:04;;;;;;;6.03;4.10;;;;;;;-141.97;32.68;47392.22;5011883;28;20191;-83
2023/09/11 09:24:30;;;;;;;6.47;3.80;;;;;;;-141.97;32.80;47275.00;5013050;28;20189;-85
2023/09/11 09:27:00;;;;;;;8.35;4.10;;;;;;;-141.97;32.44;47392.22;5013027;28;20173;-84
2023/09/11 09:29:26;;;;;;;6.50;4.22;;;;;;;-141.97;32.59;47201.97;5013113;28;20174;-87
2023/09/11 09:31:51;;;;;;;8.38;4.20;;;;;;;-141.97;32.80;47394.16;5016176;28;20226;-84
2023/09/11 09:34:17;;;;;;;4.63;3.67;;;;;;;-141.97;32.80;47307.66;5028323;28;20204;-84
2023/09/11 09:36:50;;;;;;;6.20;3.92;;;;;;;-141.97;33.27;47390.31;5011664;28;20214;-85
2023/09/11 09:39:16;;;;;;;7.22;3.90;;;;;;;-141.97;32.86;47092.41;5012100;28;20164;-86
2023/09/11 09:42:00;;;;;;;7.32;3.90;;;;;;;-141.97;32.60;47380.69;5016615;28;20170;-84
2023/09/11 09:44:29;;;;;;;7.10;4.05;;;;;;;-141.97;32.67;47367.25;5016789;28;20188;-85
2023/09/11 09:46:54;;;;;;;8.00;3.97;;;;;;;-141.97;32.80;47365.31;5027587;28;20657;-86
2023/09/11 09:49:23;;;;;;;5.53;4.03;;;;;;;-141.97;32.08;47373.00;5010937;28;20180;-86
2023/09/11 09:51:49;;;;;;;6.18;3.90;;;;;;;-141.97;32.25;47396.06;5013002;28;20201;-84
2023/09/11 09:54:14;;;;;;;6.00;4.10;;;;;;;-141.97;32.77;47367.25;5011788;28;20153;-85
2023/09/11 09:56:40;;;;;;;5.50;3.80;;;;;;;-141.97;32.86;47407.59;5012743;28;20533;-86
2023/09/11 09:59:07;;;;;;;8.40;4.07;;;;;;;-141.97;32.88;47332.66;5014927;28;20157;-88
2023/09/11 10:01:43;;;;;;;5.97;3.70;;;;;;;-141.97;32.06;47419.13;5028445;28;20228;-85
2023/09/11 10:04:17;;;;;;;7.07;4.00;;;;;;;-141.97;32.60;47380.69;5012966;28;20238;-85
2023/09/11 10:06:53;;;;;;;9.43;3.70;;;;;;;-141.97;32.70;47469.09;5012224;28;20582;-84
2023/09/11 10:09:20;;;;;;;5.95;4.05;;;;;;;-141.97;32.51;47572.91;5012260;28;20193;-83
2023/09/11 10:11:45;;;;;;;5.43;3.95;;;;;;;-141.97;31.91;47098.19;5014059;28;20157;-85
2023/09/11 10:14:11;;;;;;;4.32;3.70;;;;;;;-141.97;32.00;47359.56;5012528;28;20165;-86
2023/09/11 10:16:37;;;;;;;5.57;3.97;;;;;;;-141.97;31.64;47334.56;5013038;28;20635;-86
2023/09/11 10:19:03;;;;;;;7.00;3.97;;;;;;;-141.97;31.67;47380.69;5013261;28;20201;-84
2023/09/11 10:21:31;;;;;;;6.65;4.20;;;;;;;-141.97;32.54;47167.38;5012143;28;20169;-84
2023/09/11 10:23:56;;;;;;;5.80;3.50;;;;;;;-141.97;32.45;47194.28;5012268;28;21075;-83
2023/09/11 10:26:40;;;;;;;6.80;3.80;;;;;;;-141.97;32.46;47382.63;5012334;28;20204;-85
2023/09/11 10:29:09;;;;;;;4.78;3.70;;;;;;;-141.97;32.31;47620.94;5012787;28;20215;-85
2023/09/11 10:31:58;;;;;;;5.72;3.60;;;;;;;-141.97;31.89;47382.63;5028463;28;20575;-84
2023/09/11 10:34:26;;;;;;;5.53;3.85;;;;;;;-141.97;32.03;47369.16;5017306;28;20168;-85
2023/09/11 10:36:56;;;;;;;5.18;3.80;;;;;;;-141.97;32.22;47540.22;5020186;28;20284;-85
2023/09/11 10:39:22;;;;;;;5.63;3.80;;;;;;;-141.97;33.67;47369.16;5018492;28;20174;-85
2023/09/11 10:41:48;;;;;;;5.82;4.00;;;;;;;-141.97;33.07;47595.97;5015996;28;20226;-84
2023/09/11 10:44:15;;;;;;;7.20;4.20;;;;;;;-141.97;32.81;47580.59;5017949;28;20724;-85
2023/09/11 10:46:50;;;;;;;7.00;3.90;;;;;;;-141.97;32.16;47384.53;5015681;28;20185;-84
2023/09/11 10:49:24;;;;;;;7.00;4.07;;;;;;;-141.97;32.22;47388.38;5017072;28;20169;-86
2023/09/11 10:51:50;;;;;;;4.70;3.80;;;;;;;-141.97;31.75;47594.03;5032564;28;20182;-84
2023/09/11 10:54:21;;;;;;;7.25;4.30;;;;;;;-141.97;32.41;47296.13;5018908;28;20178;-84
2023/09/11 10:56:48;;;;;;;7.25;4.10;;;;;;;-141.97;32.38;47394.16;5017538;28;20174;-86
2023/09/11 10:59:15;;;;;;;7.40;4.05;;;;;;;-141.97;32.12;47388.38;5019397;28;20170;-86
2023/09/11 11:01:43;;;;;;;7.88;4.35;;;;;;;-141.97;32.77;47319.19;5018311;28;20178;-84
2023/09/11 11:04:12;;;;;;;4.43;3.80;;;;;;;-141.97;32.33;47490.25;5033024;28;20199;-85
2023/09/11 11:06:43;;;;;;;5.63;3.80;;;;;;;-141.97;31.89;47373.00;5018723;28;20199;-84
2023/09/11 11:09:28;;;;;;;7.18;4.20;;;;;;;-141.97;32.35;47348.03;5017923;28;20728;-83
2023/09/11 11:12:01;;;;;;;9.18;4.25;;;;;;;-141.97;32.05;47332.66;5018547;28;20199;-84